Spokane, Washington
Current Conditions -  °F | °C
As of 5:53 AM on Thursday 30 Oct 2014 (Local Time) from KSFF Reporting Station
Overcast Overcast  
Wind Chill: 47°   Ceiling: 7500
Heat Index: 47°   Visibility: 8mi
Dew Point: 44°   Wind: 0mph
Humidity: 90%   Direction: NA
Pressure: 30.14"   Gusts: NA
Location:  47.66°N, 117.41°W
Report Text: KSFF 301253Z AUTO 00000KT 8SM BKN075 OVC120 08/07 A3014 RMK AO2 SLP207 T00830067
Loading
Personal Weather Stations






























Interactive Weather Map
Tropical Storm Tracking
New forecast layout! Learn more

10-Day Weather Forecast

Advertisements
Track Severe Weather on mobile